Time;durP1;ratioP1;P1;durP2;ratioP2;P2;SDS_P1;SDS_P2;PMS_P1;PMS_P2;Temp;Humidity;BMP_temperature;BMP_pressure;BME280_temperature;BME280_humidity;BME280_pressure;Samples;Min_cycle;Max_cycle;Signal;HPM_P1;HPM_P2
2022/03/29 00:02:18;;;;;;;25.20;15.27;;;11.00;47.00;;;;;;5116464;27;20066;-70
2022/03/29 00:04:44;;;;;;;27.80;14.50;;;11.00;47.30;;;;;;5128517;27;20054;-70
2022/03/29 00:07:09;;;;;;;24.58;13.13;;;10.90;47.20;;;;;;5117075;27;20058;-70
2022/03/29 00:09:36;;;;;;;29.70;13.30;;;10.90;47.10;;;;;;5115517;27;20118;-70
2022/03/29 00:12:02;;;;;;;21.48;13.18;;;10.90;47.20;;;;;;5110175;27;20030;-70
2022/03/29 00:14:28;;;;;;;26.88;15.15;;;10.90;47.40;;;;;;5117672;27;20062;-70
2022/03/29 00:16:53;;;;;;;22.55;12.48;;;10.90;47.40;;;;;;5135191;27;20076;-70
2022/03/29 00:19:19;;;;;;;23.85;13.88;;;10.80;47.30;;;;;;5134226;27;20031;-70
2022/03/29 00:21:45;;;;;;;21.75;13.20;;;10.80;47.50;;;;;;5116277;27;20490;-69
2022/03/29 00:24:11;;;;;;;24.80;12.77;;;10.80;47.50;;;;;;5132538;27;20027;-70
2022/03/29 00:26:36;;;;;;;21.27;12.55;;;10.80;47.50;;;;;;5134615;27;20448;-69
2022/03/29 00:29:03;;;;;;;20.80;11.90;;;10.70;47.50;;;;;;5112442;27;20115;-69
2022/03/29 00:31:28;;;;;;;20.10;11.90;;;10.70;47.60;;;;;;5134072;27;20023;-70
2022/03/29 00:33:54;;;;;;;22.48;12.40;;;10.70;47.60;;;;;;5115447;27;20125;-69
2022/03/29 00:36:20;;;;;;;22.38;12.88;;;10.70;47.60;;;;;;5115976;27;20027;-70
2022/03/29 00:38:49;;;;;;;22.35;13.95;;;10.70;47.70;;;;;;5134224;27;20030;-69
2022/03/29 00:41:15;;;;;;;24.35;13.00;;;10.70;47.70;;;;;;5131340;27;20086;-69
2022/03/29 00:43:40;;;;;;;23.58;14.68;;;10.60;47.70;;;;;;5131519;27;20428;-70
2022/03/29 00:46:06;;;;;;;23.10;14.52;;;10.60;48.00;;;;;;5129545;27;20038;-69
2022/03/29 00:48:32;;;;;;;35.78;21.35;;;10.60;48.00;;;;;;5133473;27;20023;-69
2022/03/29 00:50:58;;;;;;;37.03;21.42;;;10.60;48.10;;;;;;5113897;27;20477;-70
2022/03/29 00:53:24;;;;;;;44.50;24.73;;;10.60;48.20;;;;;;5115899;27;20031;-69
2022/03/29 00:55:52;;;;;;;34.65;20.05;;;10.60;48.30;;;;;;5134228;27;20027;-69
2022/03/29 00:58:18;;;;;;;38.55;19.92;;;10.60;48.40;;;;;;5115888;27;20028;-69
2022/03/29 01:00:44;;;;;;;35.38;19.40;;;10.50;48.50;;;;;;5129154;27;20020;-69
2022/03/29 01:03:11;;;;;;;52.53;26.95;;;10.50;48.50;;;;;;5133792;27;20027;-69
2022/03/29 01:05:37;;;;;;;40.90;22.08;;;10.50;48.60;;;;;;5115419;27;20470;-69
2022/03/29 01:08:05;;;;;;;34.30;19.25;;;10.50;48.60;;;;;;5115457;27;20418;-69
2022/03/29 01:10:30;;;;;;;36.33;19.65;;;10.50;48.70;;;;;;5133897;27;20026;-70
2022/03/29 01:12:57;;;;;;;29.88;17.02;;;10.50;48.60;;;;;;5134072;27;20024;-69
2022/03/29 01:15:26;;;;;;;28.75;16.70;;;10.50;48.60;;;;;;5114930;27;20027;-69
2022/03/29 01:17:53;;;;;;;31.35;17.33;;;10.40;48.90;;;;;;5124410;27;20047;-69
2022/03/29 01:20:27;;;;;;;23.50;13.40;;;10.40;49.00;;;;;;5133918;27;20026;-69
2022/03/29 01:22:55;;;;;;;23.27;13.55;;;10.40;49.10;;;;;;5130663;27;20035;-69
2022/03/29 01:25:26;;;;;;;25.05;13.57;;;10.40;49.10;;;;;;5133299;27;20482;-69
2022/03/29 01:27:53;;;;;;;26.60;15.00;;;10.40;49.20;;;;;;5133997;27;20106;-69
2022/03/29 01:30:20;;;;;;;24.70;15.18;;;10.40;49.30;;;;;;5132544;27;20031;-69
2022/03/29 01:32:51;;;;;;;22.50;13.05;;;10.40;49.20;;;;;;5132443;27;20027;-69
2022/03/29 01:35:20;;;;;;;23.02;13.85;;;10.30;49.10;;;;;;5132743;27;20489;-69
2022/03/29 01:37:46;;;;;;;24.08;13.30;;;10.30;49.20;;;;;;5131486;27;20038;-69
2022/03/29 01:40:15;;;;;;;23.92;12.85;;;10.30;49.10;;;;;;5133668;27;20050;-69
2022/03/29 01:42:56;;;;;;;23.05;13.55;;;10.30;49.10;;;;;;5133324;27;20378;-69
2022/03/29 01:45:24;;;;;;;23.55;13.73;;;10.30;49.40;;;;;;5113280;28;20027;-69
2022/03/29 01:47:50;;;;;;;27.20;14.50;;;10.30;49.40;;;;;;5133010;28;20024;-69
2022/03/29 01:50:16;;;;;;;27.70;14.88;;;10.20;49.50;;;;;;5132799;28;20070;-69
2022/03/29 01:52:47;;;;;;;22.67;12.57;;;10.20;49.70;;;;;;5132658;28;20093;-69
2022/03/29 01:55:16;;;;;;;22.40;12.95;;;10.20;49.60;;;;;;5132543;28;20435;-69
2022/03/29 01:57:42;;;;;;;22.27;12.48;;;10.20;49.70;;;;;;5133353;28;20039;-70
2022/03/29 02:02:56;;;;;;;25.15;14.73;;;10.20;49.70;;;;;;5132364;28;20387;-69
2022/03/29 02:05:22;;;;;;;22.65;13.52;;;10.10;49.70;;;;;;5132828;28;20031;-69
2022/03/29 02:07:48;;;;;;;25.23;13.98;;;10.10;49.80;;;;;;5114987;28;20470;-70
2022/03/29 02:10:19;;;;;;;23.73;13.63;;;10.10;49.80;;;;;;5132630;28;20067;-69
2022/03/29 02:12:46;;;;;;;25.25;14.48;;;10.10;50.10;;;;;;5114180;28;20046;-69
2022/03/29 02:15:13;;;;;;;20.90;12.30;;;10.10;50.10;;;;;;5133525;28;20031;-70
2022/03/29 02:17:39;;;;;;;26.63;13.80;;;10.10;50.00;;;;;;5114785;28;20054;-70
2022/03/29 02:20:06;;;;;;;25.05;12.52;;;10.10;50.20;;;;;;5133230;28;20023;-70
2022/03/29 02:22:33;;;;;;;26.08;14.70;;;10.10;50.40;;;;;;5124108;28;20114;-70
2022/03/29 02:24:58;;;;;;;26.30;14.95;;;10.10;50.70;;;;;;5126604;28;20485;-70
2022/03/29 02:27:24;;;;;;;27.67;14.77;;;10.10;51.30;;;;;;5133339;28;20084;-69
2022/03/29 02:29:50;;;;;;;20.92;12.77;;;10.10;51.10;;;;;;5133067;28;20038;-69
2022/03/29 02:32:16;;;;;;;18.48;11.43;;;10.10;50.80;;;;;;5114514;28;20118;-69
2022/03/29 02:34:42;;;;;;;20.88;13.23;;;10.10;50.70;;;;;;5133238;28;20042;-70
2022/03/29 02:37:08;;;;;;;23.95;14.98;;;10.10;50.70;;;;;;5114120;28;20023;-70
2022/03/29 02:39:33;;;;;;;22.50;13.60;;;10.10;51.00;;;;;;5133206;28;20044;-70
2022/03/29 02:41:59;;;;;;;27.35;14.85;;;10.10;51.00;;;;;;5122867;28;20482;-70
2022/03/29 02:44:25;;;;;;;21.48;12.88;;;10.10;51.20;;;;;;5115539;28;20043;-69
2022/03/29 02:46:51;;;;;;;31.20;13.55;;;10.10;51.00;;;;;;5106761;28;20111;-69
2022/03/29 02:49:16;;;;;;;23.85;14.43;;;10.10;51.00;;;;;;5077734;28;20047;-69
2022/03/29 02:51:42;;;;;;;23.33;13.65;;;10.00;51.20;;;;;;5097492;27;20031;-69
2022/03/29 02:54:08;;;;;;;25.88;13.82;;;10.10;51.40;;;;;;5116533;27;20107;-70
2022/03/29 02:56:35;;;;;;;23.25;13.82;;;10.00;51.30;;;;;;5116184;28;20015;-70
2022/03/29 02:59:00;;;;;;;26.67;14.07;;;10.00;51.50;;;;;;5117162;27;20027;-69
2022/03/29 03:01:29;;;;;;;25.17;13.88;;;10.00;51.50;;;;;;5119034;27;20092;-69
2022/03/29 03:03:56;;;;;;;20.55;12.43;;;10.00;52.10;;;;;;5097810;28;20379;-70
2022/03/29 03:06:22;;;;;;;20.95;12.82;;;10.00;51.40;;;;;;5134830;27;20020;-70
2022/03/29 03:08:48;;;;;;;18.65;11.95;;;9.90;51.50;;;;;;5136574;27;20029;-70
2022/03/29 03:11:14;;;;;;;26.02;14.80;;;9.90;51.40;;;;;;5136784;27;20027;-69
2022/03/29 03:13:40;;;;;;;22.95;13.88;;;9.90;51.70;;;;;;5115205;28;20500;-70
2022/03/29 03:16:06;;;;;;;22.02;13.30;;;9.90;51.60;;;;;;5115887;28;20028;-69
2022/03/29 03:18:32;;;;;;;22.13;12.52;;;9.90;51.70;;;;;;5097461;28;20030;-70
2022/03/29 03:20:58;;;;;;;19.63;11.50;;;9.90;51.50;;;;;;5115737;28;20043;-70
2022/03/29 03:23:25;;;;;;;21.45;12.63;;;9.90;51.40;;;;;;5096317;28;20030;-70
2022/03/29 03:25:51;;;;;;;25.90;13.35;;;9.80;51.30;;;;;;5113385;28;20115;-69
2022/03/29 03:28:17;;;;;;;22.92;12.90;;;9.90;51.50;;;;;;5113262;28;20456;-69
2022/03/29 03:30:43;;;;;;;21.20;12.07;;;9.80;51.50;;;;;;5093601;28;20016;-69
2022/03/29 03:33:09;;;;;;;19.58;11.77;;;9.80;51.40;;;;;;5113276;27;20027;-69
2022/03/29 03:35:35;;;;;;;21.27;11.68;;;9.80;51.60;;;;;;5112270;28;20364;-70
2022/03/29 03:38:01;;;;;;;19.00;11.80;;;9.80;51.50;;;;;;5113658;27;20114;-70
2022/03/29 03:40:27;;;;;;;20.08;12.38;;;9.80;51.40;;;;;;5111940;28;20092;-70
2022/03/29 03:42:52;;;;;;;21.35;12.63;;;9.80;51.40;;;;;;5112396;28;20487;-70
2022/03/29 03:45:18;;;;;;;20.08;11.80;;;9.80;51.50;;;;;;5091971;28;20028;-70
2022/03/29 03:47:46;;;;;;;21.13;11.68;;;9.80;51.60;;;;;;5112023;28;20023;-69
2022/03/29 03:50:12;;;;;;;19.00;11.30;;;9.80;51.60;;;;;;5112133;28;20024;-69
2022/03/29 03:52:38;;;;;;;25.75;14.70;;;9.90;51.60;;;;;;5107073;28;20071;-69
2022/03/29 03:55:05;;;;;;;25.35;12.82;;;9.90;51.90;;;;;;5111199;28;20023;-70
2022/03/29 03:57:31;;;;;;;27.73;13.40;;;9.90;51.80;;;;;;5092562;28;20016;-69
2022/03/29 03:59:56;;;;;;;20.70;12.82;;;9.90;51.60;;;;;;5093371;28;20034;-69
2022/03/29 04:02:23;;;;;;;26.90;13.63;;;9.90;51.50;;;;;;5093465;28;20030;-69
2022/03/29 04:04:49;;;;;;;20.67;13.38;;;9.90;51.50;;;;;;5094142;28;20035;-70
2022/03/29 04:07:15;;;;;;;27.20;12.80;;;9.90;51.50;;;;;;5094292;28;20034;-70
2022/03/29 04:09:41;;;;;;;29.77;15.15;;;10.00;51.50;;;;;;5111634;28;20106;-69
2022/03/29 04:12:08;;;;;;;23.52;14.20;;;10.00;51.70;;;;;;5111855;28;20028;-69
2022/03/29 04:14:34;;;;;;;23.85;14.00;;;10.00;51.90;;;;;;5112333;28;20038;-70
2022/03/29 04:17:00;;;;;;;37.38;14.90;;;10.00;51.90;;;;;;5089030;28;20028;-69
2022/03/29 04:19:25;;;;;;;24.80;14.27;;;10.00;51.80;;;;;;5110980;28;20020;-69
2022/03/29 04:21:51;;;;;;;26.35;15.25;;;10.00;52.10;;;;;;5111368;28;20118;-70
2022/03/29 04:24:17;;;;;;;24.95;14.18;;;10.00;52.00;;;;;;5111598;28;20027;-70
2022/03/29 04:26:43;;;;;;;26.13;16.40;;;10.00;52.00;;;;;;5111972;28;20456;-70
2022/03/29 04:29:08;;;;;;;23.52;14.38;;;10.00;52.20;;;;;;5090278;28;20028;-70
2022/03/29 04:31:34;;;;;;;26.65;13.25;;;10.00;52.10;;;;;;5099281;27;20028;-69
2022/03/29 04:34:00;;;;;;;21.45;12.98;;;10.00;52.00;;;;;;5111102;28;20032;-70
2022/03/29 04:36:27;;;;;;;33.08;14.20;;;10.00;51.90;;;;;;5110911;28;20047;-70
2022/03/29 04:38:54;;;;;;;30.30;14.88;;;10.00;51.90;;;;;;5113181;27;20395;-69
2022/03/29 04:41:21;;;;;;;23.92;13.25;;;9.90;51.90;;;;;;5130034;27;20035;-69
2022/03/29 04:43:47;;;;;;;20.40;12.77;;;9.90;51.90;;;;;;5110243;27;20075;-69
2022/03/29 04:46:13;;;;;;;23.00;13.95;;;9.90;52.00;;;;;;5133742;27;20101;-69
2022/03/29 04:48:38;;;;;;;28.40;15.27;;;9.90;51.90;;;;;;5134578;27;20029;-70
2022/03/29 04:51:04;;;;;;;25.40;13.57;;;9.90;51.90;;;;;;5134473;27;20079;-69
2022/03/29 04:53:30;;;;;;;24.00;12.73;;;9.90;51.80;;;;;;5134752;27;20026;-69
2022/03/29 04:55:56;;;;;;;23.58;13.02;;;9.90;51.70;;;;;;5134465;27;20019;-69
2022/03/29 04:58:26;;;;;;;26.25;14.45;;;9.90;51.70;;;;;;5133643;27;20023;-70
2022/03/29 05:00:53;;;;;;;22.25;12.73;;;9.90;51.80;;;;;;5112898;27;20035;-69
2022/03/29 05:03:19;;;;;;;21.58;13.93;;;9.90;51.80;;;;;;5130308;27;20108;-69
2022/03/29 05:05:45;;;;;;;26.10;13.52;;;9.90;51.90;;;;;;5129341;27;20023;-69
2022/03/29 05:08:14;;;;;;;22.80;13.82;;;9.90;51.90;;;;;;5111564;27;20027;-69
2022/03/29 05:10:40;;;;;;;25.35;13.73;;;9.90;51.80;;;;;;5130719;27;20390;-69
2022/03/29 05:13:06;;;;;;;26.73;13.55;;;9.90;51.70;;;;;;5130384;27;20035;-70
2022/03/29 05:15:33;;;;;;;22.90;14.00;;;9.90;51.70;;;;;;5112548;27;20031;-69
2022/03/29 05:17:59;;;;;;;27.40;14.63;;;10.00;51.90;;;;;;5130868;27;20024;-69
2022/03/29 05:20:25;;;;;;;26.25;14.73;;;10.00;51.90;;;;;;5131379;27;20034;-69
2022/03/29 05:22:53;;;;;;;22.70;13.55;;;10.00;51.90;;;;;;5131403;27;20039;-70
2022/03/29 05:25:24;;;;;;;22.70;14.07;;;10.00;51.80;;;;;;5129852;27;20027;-70
2022/03/29 05:27:51;;;;;;;22.63;12.77;;;10.00;51.90;;;;;;5133264;27;20031;-70
2022/03/29 05:30:17;;;;;;;24.38;13.82;;;10.10;51.90;;;;;;5133873;27;20027;-69
2022/03/29 05:32:43;;;;;;;23.50;12.85;;;10.10;52.00;;;;;;5133285;27;20037;-70
2022/03/29 05:35:10;;;;;;;23.92;14.18;;;10.20;52.20;;;;;;5115595;27;20110;-69
2022/03/29 05:37:38;;;;;;;27.73;14.82;;;10.20;52.10;;;;;;5133298;27;20015;-69
2022/03/29 05:40:06;;;;;;;24.88;13.57;;;10.20;52.00;;;;;;5131637;27;20119;-69
2022/03/29 05:42:40;;;;;;;25.38;13.45;;;10.30;52.00;;;;;;5133160;27;20167;-70
2022/03/29 05:45:07;;;;;;;25.67;14.23;;;10.30;52.00;;;;;;5134063;28;20126;-70
2022/03/29 05:50:18;;;;;;;21.17;13.13;;;10.50;52.20;;;;;;5133285;28;20103;-69
2022/03/29 05:52:45;;;;;;;29.67;14.32;;;10.60;52.40;;;;;;5133654;28;20033;-69
2022/03/29 05:55:11;;;;;;;26.58;13.60;;;10.60;52.50;;;;;;5115115;28;20028;-70
2022/03/29 05:57:36;;;;;;;25.35;13.48;;;10.70;52.40;;;;;;5133508;28;20091;-70
2022/03/29 06:00:10;;;;;;;21.67;12.68;;;10.80;52.40;;;;;;5133558;28;20032;-69
2022/03/29 06:02:37;;;;;;;21.37;12.97;;;10.90;52.40;;;;;;5132962;28;20027;-69
2022/03/29 06:05:03;;;;;;;22.40;13.25;;;10.90;52.40;;;;;;5114477;28;20027;-69
2022/03/29 06:07:29;;;;;;;21.25;13.32;;;11.00;52.50;;;;;;5133743;28;20456;-69
2022/03/29 06:09:55;;;;;;;19.38;12.80;;;11.10;52.40;;;;;;5133054;28;20112;-69
2022/03/29 06:12:22;;;;;;;21.15;13.18;;;11.20;52.40;;;;;;5133532;28;20068;-70
2022/03/29 06:14:49;;;;;;;25.98;12.60;;;11.30;52.30;;;;;;5114367;28;20027;-70
2022/03/29 06:17:15;;;;;;;20.77;12.82;;;11.40;52.20;;;;;;5134300;27;20055;-70
2022/03/29 06:19:45;;;;;;;21.67;13.23;;;11.50;52.10;;;;;;5137574;27;20035;-70
2022/03/29 06:22:11;;;;;;;21.23;12.77;;;11.60;52.10;;;;;;5137342;27;20458;-70
2022/03/29 06:24:37;;;;;;;25.15;13.95;;;11.80;52.00;;;;;;5137707;27;20030;-70
2022/03/29 06:27:04;;;;;;;28.38;16.02;;;11.90;52.00;;;;;;5137224;27;20063;-70
2022/03/29 06:29:30;;;;;;;24.20;14.93;;;12.00;51.80;;;;;;5137756;27;20102;-70
2022/03/29 06:31:56;;;;;;;28.30;16.33;;;12.10;51.40;;;;;;5134583;27;20054;-70
2022/03/29 06:34:22;;;;;;;26.73;15.02;;;12.10;51.10;;;;;;5119628;27;20055;-70
2022/03/29 06:36:48;;;;;;;25.45;14.90;;;12.20;50.80;;;;;;5130413;27;20078;-70
2022/03/29 06:39:14;;;;;;;30.55;15.68;;;12.30;50.70;;;;;;5137326;27;20051;-70
2022/03/29 06:41:43;;;;;;;31.27;15.95;;;12.40;50.60;;;;;;5118962;27;20027;-70
2022/03/29 06:44:10;;;;;;;26.17;15.07;;;12.40;50.40;;;;;;5118113;27;20050;-70
2022/03/29 06:46:39;;;;;;;29.50;15.70;;;12.50;50.30;;;;;;5135860;27;20034;-70
2022/03/29 06:49:06;;;;;;;27.83;14.77;;;12.60;50.20;;;;;;5137132;27;20518;-70
2022/03/29 06:51:35;;;;;;;24.67;15.57;;;12.70;50.10;;;;;;5117304;27;20138;-70
2022/03/29 06:54:04;;;;;;;29.48;15.77;;;12.80;49.80;;;;;;5135430;27;20122;-71
2022/03/29 06:56:30;;;;;;;30.55;15.80;;;12.90;49.90;;;;;;5136932;27;20057;-70
2022/03/29 06:58:57;;;;;;;33.75;16.73;;;13.00;49.80;;;;;;5136422;27;20462;-70
2022/03/29 07:01:23;;;;;;;36.83;16.48;;;13.10;49.50;;;;;;5116935;27;20463;-70
2022/03/29 07:03:51;;;;;;;27.70;16.58;;;13.20;49.20;;;;;;5117850;27;20046;-70
2022/03/29 07:06:17;;;;;;;32.72;16.70;;;13.20;49.20;;;;;;5117759;27;20386;-70
2022/03/29 07:11:27;;;;;;;33.10;19.33;;;13.50;48.80;;;;;;5133190;27;20055;-70
2022/03/29 07:13:53;;;;;;;31.35;18.63;;;13.50;48.40;;;;;;5129324;27;20027;-70
2022/03/29 07:16:21;;;;;;;39.13;18.52;;;13.70;48.20;;;;;;5119560;27;20034;-71
2022/03/29 07:18:47;;;;;;;39.30;19.88;;;13.70;47.80;;;;;;5136190;27;20098;-70
2022/03/29 07:21:13;;;;;;;40.45;20.73;;;13.80;47.60;;;;;;5116661;27;20447;-71
2022/03/29 07:23:40;;;;;;;40.30;21.00;;;13.90;47.30;;;;;;5129261;27;20028;-71
2022/03/29 07:26:06;;;;;;;42.22;22.63;;;14.00;47.00;;;;;;5114939;27;20023;-70
2022/03/29 07:28:32;;;;;;;42.60;23.33;;;14.10;46.90;;;;;;5127060;27;20168;-70
2022/03/29 07:30:58;;;;;;;43.00;22.90;;;14.20;46.70;;;;;;5136236;27;20474;-71
2022/03/29 07:33:24;;;;;;;41.22;23.23;;;14.20;46.70;;;;;;5115896;27;20027;-71
2022/03/29 07:35:49;;;;;;;48.47;23.40;;;14.30;47.30;;;;;;5136296;27;20112;-70
2022/03/29 07:38:15;;;;;;;40.50;22.02;;;14.50;46.60;;;;;;5130790;27;20027;-70
2022/03/29 07:40:42;;;;;;;77.80;26.02;;;14.60;46.60;;;;;;5116412;27;20047;-70
2022/03/29 07:43:11;;;;;;;47.88;23.13;;;14.70;46.20;;;;;;5125110;27;20039;-71
2022/03/29 07:45:37;;;;;;;39.55;23.67;;;14.90;45.70;;;;;;5135973;27;20485;-71
2022/03/29 07:48:04;;;;;;;48.38;23.25;;;15.00;45.40;;;;;;5135744;27;20035;-70
2022/03/29 07:50:32;;;;;;;47.78;25.80;;;15.10;45.20;;;;;;5136257;27;20047;-71
2022/03/29 07:52:59;;;;;;;50.78;27.45;;;15.20;44.90;;;;;;5136153;27;20027;-72
2022/03/29 07:55:25;;;;;;;56.13;26.27;;;15.30;44.40;;;;;;5136087;27;20465;-71
2022/03/29 07:57:51;;;;;;;45.33;24.95;;;15.40;44.20;;;;;;5131463;27;20110;-71
2022/03/29 08:00:34;;;;;;;44.80;23.00;;;15.50;44.10;;;;;;5127836;27;20103;-71
2022/03/29 08:03:10;;;;;;;42.28;22.10;;;15.60;44.30;;;;;;5115246;27;20032;-70
2022/03/29 08:05:39;;;;;;;35.75;21.13;;;15.70;44.00;;;;;;5114255;27;20034;-71
2022/03/29 08:08:05;;;;;;;43.47;23.23;;;15.80;44.10;;;;;;5133127;27;20023;-71
2022/03/29 08:10:32;;;;;;;34.72;21.40;;;16.00;43.60;;;;;;5130561;27;20037;-71
2022/03/29 08:13:00;;;;;;;41.28;23.48;;;16.20;43.40;;;;;;5124522;27;20027;-70
2022/03/29 08:15:27;;;;;;;49.75;23.50;;;16.30;43.10;;;;;;5109222;27;20046;-70
2022/03/29 08:17:53;;;;;;;42.67;23.02;;;16.50;42.60;;;;;;5115111;27;20386;-71
2022/03/29 08:20:19;;;;;;;40.42;22.58;;;16.60;42.50;;;;;;5134143;27;20027;-71
2022/03/29 08:22:46;;;;;;;41.17;22.83;;;16.70;42.00;;;;;;5123883;27;20034;-69
2022/03/29 08:25:14;;;;;;;39.05;23.13;;;16.80;41.80;;;;;;5134389;27;20416;-71
2022/03/29 08:27:40;;;;;;;45.40;22.50;;;16.90;41.70;;;;;;5109375;27;20023;-69
2022/03/29 08:30:07;;;;;;;39.15;23.15;;;17.00;41.70;;;;;;5125021;27;20043;-68
2022/03/29 08:32:32;;;;;;;34.10;21.30;;;17.10;41.60;;;;;;5131973;27;20034;-70
2022/03/29 08:34:59;;;;;;;35.85;20.63;;;17.20;41.60;;;;;;5116434;27;20351;-69
2022/03/29 08:37:25;;;;;;;100.63;23.23;;;17.30;41.40;;;;;;5115001;27;20023;-69
2022/03/29 08:39:51;;;;;;;45.13;23.17;;;17.50;41.00;;;;;;5121610;27;20067;-69
2022/03/29 08:42:18;;;;;;;34.13;21.05;;;17.60;40.60;;;;;;5094888;28;20490;-69
2022/03/29 08:44:44;;;;;;;32.25;20.27;;;17.70;40.60;;;;;;5095151;28;20499;-68
2022/03/29 08:47:12;;;;;;;31.85;18.98;;;17.80;40.30;;;;;;5095696;28;20036;-68
2022/03/29 08:49:38;;;;;;;29.48;18.65;;;17.90;40.20;;;;;;5103897;28;20471;-69
2022/03/29 08:52:05;;;;;;;32.42;18.52;;;18.00;40.10;;;;;;5093485;28;20425;-68
2022/03/29 08:54:32;;;;;;;33.20;20.67;;;18.10;39.90;;;;;;5085380;28;20023;-68
2022/03/29 08:57:01;;;;;;;31.55;19.52;;;18.20;39.50;;;;;;5113060;28;20016;-68
2022/03/29 08:59:27;;;;;;;31.23;19.80;;;18.30;39.30;;;;;;5093427;28;20116;-68
2022/03/29 09:01:57;;;;;;;40.35;20.65;;;18.40;39.40;;;;;;5111411;28;20070;-68
2022/03/29 09:04:25;;;;;;;39.55;21.52;;;18.50;38.90;;;;;;5113960;28;20031;-68
2022/03/29 09:06:50;;;;;;;36.35;20.33;;;18.60;38.70;;;;;;5109279;28;20020;-68
2022/03/29 09:09:40;;;;;;;38.38;20.80;;;18.80;39.00;;;;;;5093001;28;20138;-69
2022/03/29 09:12:14;;;;;;;31.23;18.67;;;18.90;38.70;;;;;;5113263;28;20032;-69
2022/03/29 09:14:59;;;;;;;31.52;17.75;;;19.00;37.50;;;;;;5093311;28;20028;-70
2022/03/29 09:17:31;;;;;;;;;;;19.10;37.00;;;;;;5084028;28;20028;-68
2022/03/29 09:19:58;;;;;;;21.20;12.88;;;19.20;38.90;;;;;;5105557;28;19961;-68
2022/03/29 09:22:35;;;;;;;23.13;14.60;;;19.30;37.50;;;;;;5112810;28;20059;-69
2022/03/29 09:25:02;;;;;;;29.10;14.73;;;19.50;36.80;;;;;;5108320;28;20133;-69
2022/03/29 09:27:28;;;;;;;31.08;15.45;;;19.50;35.90;;;;;;5108611;28;20028;-68
2022/03/29 09:30:12;;;;;;;30.80;15.35;;;19.60;35.40;;;;;;5112597;28;20088;-69
2022/03/29 09:32:56;;;;;;;;;;;19.60;34.60;;;;;;5109963;28;20063;-69
2022/03/29 09:35:22;;;;;;;22.42;13.75;;;19.60;36.10;;;;;;5101074;27;19923;-69
2022/03/29 09:37:49;;;;;;;22.92;14.68;;;19.70;34.00;;;;;;5094165;27;20019;-69
2022/03/29 09:40:16;;;;;;;30.23;13.48;;;19.70;34.00;;;;;;5146975;27;20117;-70
2022/03/29 09:42:58;;;;;;;23.60;13.82;;;19.80;33.90;;;;;;5139118;27;20482;-70
2022/03/29 09:45:42;;;;;;;23.23;13.75;;;19.90;33.90;;;;;;5124859;27;20085;-69
2022/03/29 09:48:36;;;;;;;24.27;14.57;;;20.00;33.80;;;;;;5129549;27;20058;-69
2022/03/29 09:51:08;;;;;;;24.65;16.30;;;20.10;33.10;;;;;;5113903;28;21194;-69
2022/03/29 09:53:34;;;;;;;22.75;15.18;;;20.10;32.90;;;;;;5133136;27;20042;-69
2022/03/29 09:56:01;;;;;;;29.60;15.65;;;20.20;32.30;;;;;;5136609;27;20481;-70
2022/03/29 09:58:27;;;;;;;32.40;16.48;;;20.30;31.80;;;;;;5119370;27;20027;-70
2022/03/29 10:00:55;;;;;;;25.83;14.90;;;20.30;31.20;;;;;;5119033;27;20031;-70
2022/03/29 10:03:26;;;;;;;26.08;15.43;;;20.30;31.80;;;;;;5135481;27;20023;-70
2022/03/29 10:05:54;;;;;;;27.67;16.25;;;20.40;31.70;;;;;;5135120;27;20050;-70
2022/03/29 10:11:27;;;;;;;27.05;15.32;;;20.50;31.30;;;;;;5136422;27;20072;-70
2022/03/29 10:13:53;;;;;;;30.95;15.85;;;20.60;30.50;;;;;;5133585;27;20450;-69
2022/03/29 10:16:20;;;;;;;25.95;15.32;;;20.60;30.50;;;;;;5131458;27;20019;-69
2022/03/29 10:18:46;;;;;;;27.50;16.02;;;20.70;30.20;;;;;;5117983;27;20114;-71
2022/03/29 10:21:16;;;;;;;28.45;16.25;;;20.70;30.30;;;;;;5116716;27;20519;-70
2022/03/29 10:23:49;;;;;;;24.80;15.07;;;20.80;29.70;;;;;;5133086;27;20023;-70
2022/03/29 10:26:17;;;;;;;25.60;16.00;;;20.90;30.00;;;;;;5111959;27;20023;-69
2022/03/29 10:28:46;;;;;;;25.52;16.00;;;20.90;29.60;;;;;;5134224;27;20023;-70
2022/03/29 10:31:29;;;;;;;24.15;15.00;;;21.00;29.00;;;;;;5137647;27;20423;-70
2022/03/29 10:34:21;;;;;;;27.60;16.85;;;21.10;29.30;;;;;;5138899;27;20026;-70
2022/03/29 10:37:17;;;;;;;32.67;16.70;;;21.10;28.90;;;;;;5111820;27;20405;-71
2022/03/29 10:40:02;;;;;;;33.30;15.85;;;21.20;28.80;;;;;;5116972;27;20039;-70
2022/03/29 10:42:29;;;;;;;33.38;17.00;;;21.30;28.80;;;;;;5115958;27;20032;-70
2022/03/29 10:45:10;;;;;;;26.65;15.75;;;21.30;28.30;;;;;;5140068;27;20055;-70
2022/03/29 10:47:36;;;;;;;25.30;15.27;;;21.40;28.50;;;;;;5145636;27;20024;-70
2022/03/29 10:50:05;;;;;;;26.77;16.45;;;21.40;28.30;;;;;;5112983;27;20432;-70
2022/03/29 10:52:48;;;;;;;26.50;14.93;;;21.50;28.50;;;;;;5130183;27;20038;-70
2022/03/29 10:55:28;;;;;;;26.58;15.55;;;21.60;28.60;;;;;;5122500;27;20467;-70
2022/03/29 10:58:13;;;;;;;29.85;14.70;;;21.60;28.10;;;;;;5119925;27;20386;-70
2022/03/29 11:00:45;;;;;;;27.13;16.20;;;21.70;28.10;;;;;;5097269;28;20030;-69
2022/03/29 11:03:22;;;;;;;27.95;16.10;;;21.60;27.40;;;;;;5120012;27;20039;-71
2022/03/29 11:06:08;;;;;;;24.52;15.05;;;21.60;27.30;;;;;;5136078;27;20024;-69
2022/03/29 11:08:39;;;;;;;27.52;15.18;;;21.60;27.80;;;;;;5116194;27;20104;-70
2022/03/29 11:11:06;;;;;;;25.52;15.10;;;21.60;27.40;;;;;;5135406;27;20422;-69
2022/03/29 11:13:39;;;;;;;26.65;14.52;;;21.60;27.50;;;;;;5122701;27;20076;-70
2022/03/29 11:16:26;;;;;;;24.25;13.65;;;21.70;27.20;;;;;;5113393;28;20031;-70
2022/03/29 11:18:52;;;;;;;26.10;16.23;;;21.60;27.20;;;;;;5128348;27;20102;-75
2022/03/29 11:21:50;;;;;;;26.35;14.70;;;21.60;26.60;;;;;;5128567;27;20482;-70
2022/03/29 11:24:20;;;;;;;24.92;15.32;;;21.60;27.50;;;;;;5019038;28;20086;-72
2022/03/29 11:26:56;;;;;;;25.98;15.68;;;21.60;27.00;;;;;;5030176;28;20041;-70
2022/03/29 11:29:23;;;;;;;26.50;14.68;;;21.60;27.10;;;;;;5042315;28;20032;-69
2022/03/29 11:31:50;;;;;;;30.15;14.50;;;21.60;27.30;;;;;;5029539;28;20041;-69
2022/03/29 11:34:16;;;;;;;25.20;14.50;;;21.70;27.10;;;;;;5028346;28;20118;-69
2022/03/29 11:36:42;;;;;;;27.40;15.52;;;21.70;27.00;;;;;;5020899;28;20061;-70
2022/03/29 11:39:20;;;;;;;30.65;15.13;;;21.70;26.90;;;;;;5030083;28;20053;-70
2022/03/29 11:41:47;;;;;;;33.17;15.27;;;21.70;26.60;;;;;;5030020;28;20041;-70
2022/03/29 11:44:14;;;;;;;25.02;15.43;;;21.80;26.80;;;;;;5011627;28;20038;-70
2022/03/29 11:47:07;;;;;;;25.13;15.65;;;21.80;27.10;;;;;;5031210;28;20440;-69
2022/03/29 11:49:39;;;;;;;26.15;16.48;;;21.90;27.20;;;;;;5017429;28;20113;-69
2022/03/29 11:52:13;;;;;;;26.48;15.80;;;21.90;26.80;;;;;;4998972;28;20072;-69
2022/03/29 11:54:47;;;;;;;29.48;15.88;;;22.00;26.80;;;;;;5014931;28;20461;-69
2022/03/29 11:57:24;;;;;;;24.17;14.25;;;22.00;26.30;;;;;;5014006;28;20124;-70
2022/03/29 11:59:53;;;;;;;23.85;14.10;;;22.00;26.40;;;;;;5048550;28;20091;-71
2022/03/29 12:02:19;;;;;;;22.05;14.32;;;22.10;26.60;;;;;;5134914;27;20097;-69
2022/03/29 12:04:49;;;;;;;27.58;14.88;;;22.20;26.80;;;;;;5114616;28;20023;-70
2022/03/29 12:07:16;;;;;;;23.08;14.30;;;22.20;26.40;;;;;;5129613;27;20496;-70
2022/03/29 12:09:49;;;;;;;24.65;14.30;;;22.40;26.30;;;;;;5133221;27;20061;-70
2022/03/29 12:12:19;;;;;;;22.90;14.15;;;22.50;26.10;;;;;;5123294;27;20496;-70
2022/03/29 12:14:45;;;;;;;23.70;14.55;;;22.60;26.20;;;;;;5121505;27;20031;-70
2022/03/29 12:17:12;;;;;;;26.67;15.70;;;22.70;25.60;;;;;;5114129;27;20106;-71
2022/03/29 12:19:39;;;;;;;22.50;14.10;;;22.80;25.30;;;;;;5128323;27;20072;-69
2022/03/29 12:22:07;;;;;;;25.02;13.63;;;23.00;25.40;;;;;;5134663;27;20031;-70
2022/03/29 12:24:35;;;;;;;26.00;15.63;;;23.10;25.30;;;;;;5135035;27;20035;-70
2022/03/29 12:27:06;;;;;;;24.15;14.90;;;23.20;24.50;;;;;;5126408;27;20024;-73
2022/03/29 12:29:44;;;;;;;34.33;17.05;;;23.30;24.00;;;;;;5131284;27;20031;-71
2022/03/29 12:32:10;;;;;;;26.70;15.13;;;23.40;24.20;;;;;;5127886;27;20104;-70
2022/03/29 12:34:36;;;;;;;23.50;13.48;;;23.50;23.50;;;;;;5130997;27;20020;-70
2022/03/29 12:37:05;;;;;;;23.20;14.50;;;23.60;23.60;;;;;;5107388;27;20030;-69
2022/03/29 12:39:45;;;;;;;27.02;15.07;;;23.70;23.10;;;;;;5115680;27;20067;-70
2022/03/29 12:42:19;;;;;;;25.52;14.75;;;23.70;23.10;;;;;;5129848;27;20039;-70
2022/03/29 12:44:53;;;;;;;27.23;15.90;;;23.80;23.00;;;;;;5116174;27;20095;-70
2022/03/29 12:47:19;;;;;;;26.52;15.68;;;23.90;22.50;;;;;;5116128;27;20045;-70